createdAt,value
2018-01-17T00:00:43.859Z,19.50
2018-01-17T00:02:43.818Z,21.10
2018-01-17T00:03:43.818Z,16.20
2018-01-17T00:04:43.820Z,20.80
2018-01-17T00:05:43.827Z,19.70
2018-01-17T00:06:43.842Z,22.10
2018-01-17T00:07:43.834Z,19.20
2018-01-17T00:08:43.834Z,24.50
2018-01-17T00:09:43.844Z,20.60
2018-01-17T00:10:43.847Z,20.30
2018-01-17T00:11:43.855Z,23.80
2018-01-17T00:12:43.854Z,16.90
2018-01-17T00:13:43.858Z,23.20
2018-01-17T00:14:43.866Z,21.00
2018-01-17T00:15:43.872Z,20.30
2018-01-17T00:16:43.871Z,20.00
2018-01-17T00:17:43.872Z,20.40
2018-01-17T00:18:43.886Z,23.90
2018-01-17T00:19:44.478Z,23.20
2018-01-17T00:20:43.890Z,22.00
2018-01-17T00:21:43.894Z,22.90
2018-01-17T00:22:43.897Z,22.80
2018-01-17T00:23:43.894Z,20.70
2018-01-17T00:24:43.898Z,23.20
2018-01-17T00:27:09.391Z,25.00
2018-01-17T00:31:47.618Z,22.00
2018-01-17T00:32:47.620Z,22.00
2018-01-17T00:33:47.625Z,20.90
2018-01-17T00:34:47.627Z,18.80
2018-01-17T00:35:47.636Z,19.90
2018-01-17T00:36:47.648Z,17.30
2018-01-17T00:37:47.640Z,19.30
2018-01-17T00:38:47.821Z,23.00
2018-01-17T00:39:47.650Z,19.70
2018-01-17T00:40:47.650Z,19.20
2018-01-17T00:41:47.666Z,22.20
2018-01-17T00:42:47.665Z,20.60
2018-01-17T00:43:48.479Z,17.70
2018-01-17T00:44:47.671Z,20.40
2018-01-17T00:45:47.672Z,24.80
2018-01-17T00:46:47.680Z,23.10
2018-01-17T00:47:47.680Z,24.70
2018-01-17T00:48:47.690Z,18.40
2018-01-17T00:49:47.695Z,18.90
2018-01-17T00:50:47.695Z,14.70
2018-01-17T00:51:47.704Z,20.80
2018-01-17T00:52:47.707Z,20.00
2018-01-17T00:53:47.701Z,20.80
2018-01-17T00:54:47.712Z,16.40
2018-01-17T00:55:47.756Z,25.60
2018-01-17T00:56:47.712Z,18.60
2018-01-17T00:57:47.723Z,15.30
2018-01-17T00:58:47.724Z,19.10
2018-01-17T00:59:47.726Z,19.60
2018-01-17T01:00:47.736Z,17.50
2018-01-17T01:01:47.746Z,22.70
2018-01-17T01:02:47.742Z,20.70
2018-01-17T01:03:47.749Z,21.70
2018-01-17T01:04:47.750Z,22.90
2018-01-17T01:05:47.753Z,17.50
2018-01-17T01:06:48.489Z,17.50
2018-01-17T01:07:47.763Z,17.50
2018-01-17T01:08:47.766Z,19.00
2018-01-17T01:09:47.776Z,20.20
2018-01-17T01:10:47.775Z,16.80
2018-01-17T01:11:47.776Z,22.30
2018-01-17T01:12:47.816Z,21.80
2018-01-17T01:13:47.787Z,15.60
2018-01-17T01:14:47.795Z,20.10
2018-01-17T01:15:47.797Z,18.10
2018-01-17T01:16:47.802Z,20.10
2018-01-17T01:17:47.808Z,19.60
2018-01-17T01:18:47.808Z,20.90
2018-01-17T01:19:47.863Z,20.60
2018-01-17T01:20:47.817Z,15.50
2018-01-17T01:21:47.826Z,22.10
2018-01-17T01:22:47.827Z,24.20
2018-01-17T01:23:47.833Z,20.90
2018-01-17T01:24:47.833Z,19.30
2018-01-17T01:25:47.842Z,18.60
2018-01-17T01:26:47.843Z,17.70
2018-01-17T01:27:47.848Z,20.90
2018-01-17T01:28:47.855Z,17.40
2018-01-17T01:29:47.861Z,17.10
2018-01-17T01:30:47.859Z,18.30
2018-01-17T01:31:47.867Z,17.50
2018-01-17T01:32:47.869Z,16.70
2018-01-17T01:33:47.866Z,17.30
2018-01-17T01:34:47.878Z,19.50
2018-01-17T01:35:47.884Z,21.40
2018-01-17T01:36:47.885Z,15.80
2018-01-17T01:37:47.898Z,18.80
2018-01-17T01:38:47.896Z,21.50
2018-01-17T01:39:47.903Z,23.40
2018-01-17T01:40:47.917Z,23.00
2018-01-17T01:41:47.912Z,17.80
2018-01-17T01:42:47.920Z,17.60
2018-01-17T01:43:47.916Z,20.90
2018-01-17T01:44:47.928Z,19.60
2018-01-17T01:45:47.926Z,30.60
2018-01-17T01:46:47.932Z,18.50
2018-01-17T01:47:47.948Z,21.00
2018-01-17T01:48:47.942Z,18.50
2018-01-17T01:49:47.948Z,21.10
2018-01-17T01:50:47.948Z,21.30
2018-01-17T01:51:47.954Z,20.00
2018-01-17T01:52:47.969Z,21.00
2018-01-17T01:53:47.964Z,17.40
2018-01-17T01:54:47.973Z,14.90
2018-01-17T01:55:47.976Z,14.40
2018-01-17T01:56:47.990Z,19.10
2018-01-17T01:57:47.988Z,11.50
2018-01-17T01:58:47.995Z,16.20
2018-01-17T01:59:47.993Z,14.80
2018-01-17T02:00:48.005Z,8.80
2018-01-17T02:01:48.006Z,11.80
2018-01-17T02:02:48.015Z,14.90
2018-01-17T02:04:48.019Z,11.10
2018-01-17T02:05:48.056Z,8.80
2018-01-17T02:06:48.025Z,12.00
2018-01-17T02:07:48.028Z,12.80
2018-01-17T02:08:48.037Z,11.80
2018-01-17T02:09:48.041Z,11.80
2018-01-17T02:10:48.040Z,11.80
2018-01-17T02:11:48.048Z,13.20
2018-01-17T02:12:48.056Z,11.30
2018-01-17T02:13:48.056Z,14.30
2018-01-17T02:14:48.069Z,12.40
2018-01-17T02:15:48.202Z,12.00
2018-01-17T02:16:48.070Z,13.40
2018-01-17T02:17:48.077Z,15.70
2018-01-17T02:18:48.083Z,16.50
2018-01-17T02:19:48.086Z,13.30
2018-01-17T02:20:48.086Z,13.70
2018-01-17T02:21:48.097Z,14.70
2018-01-17T02:22:48.097Z,11.80
2018-01-17T02:23:48.108Z,16.20
2018-01-17T02:24:48.111Z,13.50
2018-01-17T02:25:48.115Z,12.00
2018-01-17T02:26:48.112Z,13.80
2018-01-17T02:27:48.121Z,15.50
2018-01-17T02:28:48.185Z,13.20
2018-01-17T02:29:48.166Z,12.40
2018-01-17T02:30:48.136Z,13.40
2018-01-17T02:31:48.137Z,12.60
2018-01-17T02:32:48.154Z,14.40
2018-01-17T02:33:48.149Z,13.20
2018-01-17T02:34:48.153Z,13.40
2018-01-17T02:35:48.164Z,14.60
2018-01-17T02:36:48.164Z,12.50
2018-01-17T02:37:48.169Z,15.40
2018-01-17T02:38:48.170Z,16.60
2018-01-17T02:39:48.179Z,18.50
2018-01-17T02:40:48.179Z,16.80
2018-01-17T02:41:48.982Z,17.00
2018-01-17T02:42:48.191Z,13.10
2018-01-17T02:43:48.193Z,15.50
2018-01-17T02:44:48.201Z,14.30
2018-01-17T02:45:48.198Z,15.60
2018-01-17T02:46:48.206Z,16.10
2018-01-17T02:47:48.211Z,20.00
2018-01-17T02:48:48.212Z,19.10
2018-01-17T02:49:48.220Z,16.60
2018-01-17T02:50:48.225Z,22.00
2018-01-17T02:51:48.982Z,20.40
2018-01-17T02:52:48.226Z,18.10
2018-01-17T02:53:48.237Z,21.00
2018-01-17T02:54:48.240Z,23.20
2018-01-17T02:55:48.250Z,19.30
2018-01-17T02:56:48.252Z,20.70
2018-01-17T02:57:48.250Z,18.40
2018-01-17T02:58:48.247Z,15.60
2018-01-17T02:59:48.253Z,15.90
2018-01-17T03:00:48.259Z,20.70
2018-01-17T03:01:48.262Z,16.80
2018-01-17T03:02:48.272Z,18.00
2018-01-17T03:03:48.273Z,19.20
2018-01-17T03:04:48.278Z,16.30
2018-01-17T03:05:48.271Z,18.40
2018-01-17T03:06:48.282Z,22.00
2018-01-17T03:07:48.292Z,18.70
2018-01-17T03:08:48.295Z,16.90
2018-01-17T03:09:48.983Z,18.10
2018-01-17T03:10:48.300Z,17.70
2018-01-17T03:11:48.304Z,16.20
2018-01-17T03:12:48.304Z,20.30
2018-01-17T03:13:48.313Z,12.30
2018-01-17T03:14:48.317Z,17.30
2018-01-17T03:15:48.319Z,20.50
2018-01-17T03:16:48.334Z,14.60
2018-01-17T03:17:48.329Z,13.90
2018-01-17T03:18:48.332Z,14.20
2018-01-17T03:19:48.337Z,18.70
2018-01-17T03:20:48.341Z,13.80
2018-01-17T03:21:48.355Z,13.60
2018-01-17T03:22:48.983Z,12.60
2018-01-17T03:23:48.350Z,15.30
2018-01-17T03:24:48.360Z,11.80
2018-01-17T03:25:48.359Z,10.60
2018-01-17T03:26:48.370Z,13.20
2018-01-17T03:27:48.366Z,11.80
2018-01-17T03:28:48.374Z,12.00
2018-01-17T03:29:48.379Z,11.70
2018-01-17T03:30:48.380Z,13.30
2018-01-17T03:31:48.384Z,11.70
2018-01-17T03:32:48.387Z,9.00
2018-01-17T03:33:48.386Z,12.90
2018-01-17T03:34:48.396Z,9.50
2018-01-17T03:35:48.395Z,11.80
2018-01-17T03:36:48.401Z,11.70
2018-01-17T03:37:48.403Z,11.30
2018-01-17T03:38:48.411Z,11.00
2018-01-17T03:39:48.406Z,13.00
2018-01-17T03:40:48.416Z,12.60
2018-01-17T03:41:48.428Z,17.20
2018-01-17T03:42:48.424Z,13.10
2018-01-17T03:43:48.429Z,10.50
2018-01-17T03:44:48.431Z,13.70
2018-01-17T03:45:48.516Z,11.60
2018-01-17T03:46:48.430Z,10.90
2018-01-17T03:47:48.457Z,11.10
2018-01-17T03:48:48.448Z,10.80
2018-01-17T03:49:48.449Z,13.00
2018-01-17T03:50:48.514Z,11.70
2018-01-17T03:51:48.455Z,13.70
2018-01-17T03:52:48.466Z,15.20
2018-01-17T03:53:48.467Z,16.60
2018-01-17T03:54:48.471Z,13.00
2018-01-17T03:55:48.478Z,14.50
2018-01-17T03:56:48.482Z,12.00
2018-01-17T03:57:48.483Z,14.90
2018-01-17T03:58:48.487Z,14.30
2018-01-17T04:00:48.494Z,15.60
2018-01-17T04:01:48.497Z,9.60
2018-01-17T04:03:48.573Z,13.80
2018-01-17T04:04:48.516Z,14.50
2018-01-17T04:05:48.515Z,18.20
2018-01-17T04:06:48.515Z,13.20
2018-01-17T04:07:48.520Z,16.10
2018-01-17T04:08:48.523Z,13.30
2018-01-17T04:09:48.524Z,10.30
2018-01-17T04:10:48.531Z,15.30
2018-01-17T04:11:48.535Z,13.90
2018-01-17T04:12:48.534Z,16.70
2018-01-17T04:13:48.545Z,15.10
2018-01-17T04:14:48.539Z,14.10
2018-01-17T04:15:48.539Z,16.00
2018-01-17T04:16:48.565Z,16.50
2018-01-17T04:17:48.568Z,14.20
2018-01-17T04:18:48.564Z,14.30
2018-01-17T04:19:48.564Z,15.20
2018-01-17T04:20:48.572Z,15.80
2018-01-17T04:21:48.581Z,13.10
2018-01-17T04:22:48.572Z,16.60
2018-01-17T04:23:48.583Z,11.70
2018-01-17T04:24:48.580Z,10.50
2018-01-17T04:25:48.594Z,11.50
2018-01-17T04:26:48.702Z,15.70
2018-01-17T04:27:48.599Z,17.30
2018-01-17T04:28:48.599Z,15.30
2018-01-17T04:29:48.607Z,15.60
2018-01-17T04:30:48.608Z,17.30
2018-01-17T04:31:48.610Z,17.30
2018-01-17T04:32:48.621Z,17.80
2018-01-17T04:33:48.619Z,16.10
2018-01-17T04:34:48.631Z,17.30
2018-01-17T04:35:48.627Z,14.80
2018-01-17T04:37:48.637Z,16.40
2018-01-17T04:38:48.640Z,11.70
2018-01-17T04:39:48.642Z,17.10
2018-01-17T04:40:48.645Z,16.80
2018-01-17T04:41:48.650Z,13.20
2018-01-17T04:42:48.655Z,15.10
2018-01-17T04:43:48.659Z,15.30
2018-01-17T04:44:48.717Z,11.00
2018-01-17T04:45:48.675Z,18.00
2018-01-17T04:46:48.676Z,13.00
2018-01-17T04:47:48.677Z,15.80
2018-01-17T04:48:48.677Z,16.30
2018-01-17T04:49:48.681Z,14.10
2018-01-17T04:50:48.684Z,12.60
2018-01-17T04:51:48.692Z,15.20
2018-01-17T04:52:48.690Z,12.00
2018-01-17T04:53:48.697Z,16.80
2018-01-17T04:54:48.695Z,15.70
2018-01-17T04:55:48.703Z,16.00
2018-01-17T04:56:48.706Z,13.60
2018-01-17T04:57:48.714Z,16.90
2018-01-17T04:58:48.712Z,19.00
2018-01-17T04:59:48.717Z,17.30
2018-01-17T05:00:48.724Z,14.70
2018-01-17T05:01:48.725Z,12.90
2018-01-17T05:02:48.732Z,14.60
2018-01-17T05:03:48.737Z,12.50
2018-01-17T05:04:48.733Z,17.70
2018-01-17T05:05:48.743Z,14.00
2018-01-17T05:06:48.743Z,14.60
2018-01-17T05:07:48.871Z,13.40
2018-01-17T05:08:48.753Z,22.20
2018-01-17T05:09:48.757Z,21.80
2018-01-17T05:10:48.760Z,16.60
2018-01-17T05:11:48.763Z,14.80
2018-01-17T05:12:48.765Z,18.40
2018-01-17T05:13:48.769Z,18.60
2018-01-17T05:14:48.768Z,19.10
2018-01-17T05:15:48.785Z,18.30
2018-01-17T05:16:48.782Z,19.00
2018-01-17T05:17:48.791Z,14.50
2018-01-17T05:18:48.781Z,11.50
2018-01-17T05:19:48.794Z,17.30
2018-01-17T05:20:48.795Z,14.80
2018-01-17T05:21:48.801Z,15.70
2018-01-17T05:22:48.808Z,14.30
2018-01-17T05:23:48.806Z,10.40
2018-01-17T05:24:48.810Z,12.60
2018-01-17T05:25:48.812Z,20.50
2018-01-17T05:26:48.817Z,14.00
2018-01-17T05:27:48.822Z,15.50
2018-01-17T05:28:48.825Z,15.50
2018-01-17T05:29:48.827Z,16.50
2018-01-17T05:30:48.831Z,12.60
2018-01-17T05:31:48.837Z,14.40
2018-01-17T05:32:48.841Z,13.80
2018-01-17T05:33:48.849Z,9.50
2018-01-17T05:34:48.846Z,15.10
2018-01-17T05:35:48.853Z,15.40
2018-01-17T05:36:48.865Z,14.40
2018-01-17T05:37:48.900Z,11.90
2018-01-17T05:38:48.870Z,13.40
2018-01-17T05:39:48.861Z,15.90
2018-01-17T05:40:48.861Z,10.70
2018-01-17T05:41:48.864Z,17.30
2018-01-17T05:42:48.871Z,20.20
2018-01-17T05:43:48.874Z,14.10
2018-01-17T05:44:48.874Z,15.30
2018-01-17T05:45:48.886Z,14.10
2018-01-17T05:46:48.890Z,18.40
2018-01-17T05:47:48.893Z,16.30
2018-01-17T05:48:48.897Z,11.70
2018-01-17T05:49:48.898Z,11.50
2018-01-17T05:50:48.902Z,13.40
2018-01-17T05:51:48.914Z,13.90
2018-01-17T05:52:48.911Z,15.20
2018-01-17T05:53:48.917Z,15.70
2018-01-17T05:54:48.921Z,14.40
2018-01-17T05:55:48.962Z,11.30
2018-01-17T05:56:48.927Z,15.20
2018-01-17T05:57:48.930Z,11.00
2018-01-17T05:58:48.934Z,12.20
2018-01-17T05:59:48.938Z,12.20
2018-01-17T06:00:48.944Z,11.80
2018-01-17T06:01:48.943Z,15.60
2018-01-17T06:02:48.960Z,13.00
2018-01-17T06:03:48.953Z,12.10
2018-01-17T06:04:49.490Z,16.00
2018-01-17T06:05:48.964Z,18.40
2018-01-17T06:06:48.959Z,18.80
2018-01-17T06:07:48.965Z,16.10
2018-01-17T06:08:48.998Z,18.00
2018-01-17T06:09:48.972Z,14.40
2018-01-17T06:10:48.980Z,16.00
2018-01-17T06:11:48.985Z,14.50
2018-01-17T06:12:48.984Z,13.80
2018-01-17T06:13:48.996Z,10.90
2018-01-17T06:14:48.997Z,11.80
2018-01-17T06:15:49.001Z,14.60
2018-01-17T06:16:49.001Z,14.90
2018-01-17T06:17:49.002Z,14.80
2018-01-17T06:18:49.040Z,10.60
2018-01-17T06:19:48.999Z,12.60
2018-01-17T06:20:49.068Z,10.50
2018-01-17T06:21:49.022Z,12.50
2018-01-17T06:22:49.027Z,10.90
2018-01-17T06:23:49.029Z,15.50
2018-01-17T06:24:49.035Z,13.00
2018-01-17T06:25:49.034Z,11.60
2018-01-17T06:26:49.038Z,14.60
2018-01-17T06:27:49.039Z,14.70
2018-01-17T06:28:49.046Z,10.10
2018-01-17T06:29:49.057Z,9.20
2018-01-17T06:30:49.052Z,10.60
2018-01-17T06:31:49.060Z,11.60
2018-01-17T06:32:49.100Z,12.10
2018-01-17T06:33:49.065Z,11.40
2018-01-17T06:34:49.066Z,11.20
2018-01-17T06:35:49.076Z,11.10
2018-01-17T06:36:49.073Z,21.20
2018-01-17T06:37:49.076Z,9.90
2018-01-17T06:38:49.085Z,14.20
2018-01-17T06:39:49.087Z,12.70
2018-01-17T06:40:49.098Z,8.20
2018-01-17T06:41:49.096Z,7.60
2018-01-17T06:42:49.098Z,8.60
2018-01-17T06:43:49.099Z,9.50
2018-01-17T06:44:49.105Z,10.90
2018-01-17T06:45:49.129Z,10.30
2018-01-17T06:46:49.107Z,12.60
2018-01-17T06:47:49.120Z,9.20
2018-01-17T06:48:49.117Z,4.90
2018-01-17T06:49:49.126Z,7.50
2018-01-17T06:50:49.130Z,6.80
2018-01-17T06:51:49.130Z,9.70
2018-01-17T06:52:49.129Z,6.70
2018-01-17T06:53:49.136Z,8.50
2018-01-17T06:54:49.144Z,10.30
2018-01-17T06:55:49.146Z,10.60
2018-01-17T06:56:49.158Z,9.80
2018-01-17T06:57:49.160Z,7.90
2018-01-17T06:58:49.210Z,7.90
2018-01-17T06:59:49.205Z,10.30
2018-01-17T07:00:49.180Z,4.90
2018-01-17T07:01:49.169Z,7.00
2018-01-17T07:02:49.172Z,7.80
2018-01-17T07:03:49.198Z,11.90
2018-01-17T07:04:49.183Z,11.00
2018-01-17T07:05:49.192Z,12.20
2018-01-17T07:06:49.180Z,12.80
2018-01-17T07:07:49.203Z,10.70
2018-01-17T07:08:49.195Z,10.30
2018-01-17T07:09:49.199Z,13.40
2018-01-17T07:10:49.206Z,9.40
2018-01-17T07:11:49.209Z,8.00
2018-01-17T07:12:49.219Z,10.20
2018-01-17T07:13:49.214Z,8.80
2018-01-17T07:14:49.220Z,10.90
2018-01-17T07:15:49.224Z,13.90
2018-01-17T07:16:49.232Z,5.70
2018-01-17T07:17:49.230Z,9.90
2018-01-17T07:18:49.232Z,13.40
2018-01-17T07:19:49.239Z,5.40
2018-01-17T07:20:49.240Z,9.90
2018-01-17T07:21:49.245Z,13.80
2018-01-17T07:22:49.249Z,11.40
2018-01-17T07:23:49.252Z,9.50
2018-01-17T07:24:49.262Z,10.30
2018-01-17T07:25:49.262Z,8.10
2018-01-17T07:26:49.365Z,11.00
2018-01-17T07:27:49.271Z,10.20
2018-01-17T07:28:49.277Z,13.80
2018-01-17T07:29:49.276Z,7.30
2018-01-17T07:30:49.283Z,9.10
2018-01-17T07:31:49.285Z,13.10
2018-01-17T07:32:49.287Z,8.40
2018-01-17T07:33:49.293Z,8.60
2018-01-17T07:34:49.314Z,5.10
2018-01-17T07:35:49.303Z,11.80
2018-01-17T07:36:49.303Z,6.30
2018-01-17T07:37:49.308Z,7.00
2018-01-17T07:38:49.316Z,13.20
2018-01-17T07:39:49.362Z,15.30
2018-01-17T07:40:49.317Z,12.50
2018-01-17T07:41:49.323Z,12.50
2018-01-17T07:42:49.328Z,12.20
2018-01-17T07:43:49.324Z,10.90
2018-01-17T07:44:49.333Z,11.80
2018-01-17T07:45:49.339Z,10.60
2018-01-17T07:46:49.332Z,8.80
2018-01-17T07:47:49.345Z,6.60
2018-01-17T07:48:49.345Z,14.10
2018-01-17T07:49:49.363Z,12.10
2018-01-17T07:50:49.356Z,10.20
2018-01-17T07:51:49.362Z,8.40
2018-01-17T07:52:49.368Z,7.60
2018-01-17T07:53:49.372Z,5.80
2018-01-17T07:54:49.365Z,11.20
2018-01-17T07:55:49.372Z,8.70
2018-01-17T07:56:49.386Z,9.30
2018-01-17T07:57:49.386Z,15.00
2018-01-17T07:58:49.391Z,9.70
2018-01-17T07:59:49.394Z,8.50
2018-01-17T08:00:49.396Z,13.20
2018-01-17T08:01:49.404Z,13.70
2018-01-17T08:02:49.401Z,13.90
2018-01-17T08:03:49.415Z,14.80
2018-01-17T08:04:49.412Z,15.80
2018-01-17T08:05:49.411Z,15.20
2018-01-17T08:06:49.417Z,12.00
2018-01-17T08:08:49.425Z,15.50
2018-01-17T08:09:49.440Z,17.10
2018-01-17T08:10:49.431Z,13.10
2018-01-17T08:11:49.440Z,15.30
2018-01-17T08:12:49.442Z,17.20
2018-01-17T08:13:49.444Z,11.50
2018-01-17T08:14:49.507Z,12.90
2018-01-17T08:15:49.455Z,13.10
2018-01-17T08:16:49.457Z,20.60
2018-01-17T08:17:49.453Z,16.70
2018-01-17T08:18:49.460Z,16.80
2018-01-17T08:19:49.471Z,23.30
2018-01-17T08:20:49.497Z,18.80
2018-01-17T08:21:49.478Z,20.40
2018-01-17T08:22:49.479Z,16.60
2018-01-17T08:23:49.497Z,18.20
2018-01-17T08:24:49.500Z,19.80
2018-01-17T08:25:49.500Z,22.10
2018-01-17T08:26:49.495Z,22.30
2018-01-17T08:27:49.498Z,20.70
2018-01-17T08:28:49.512Z,21.90
2018-01-17T08:29:49.518Z,16.30
2018-01-17T08:30:49.596Z,22.70
2018-01-17T08:31:49.512Z,20.40
2018-01-17T08:32:49.519Z,19.40
2018-01-17T08:33:49.518Z,20.30
2018-01-17T08:35:49.532Z,17.50
2018-01-17T08:36:49.517Z,19.30
2018-01-17T08:37:49.530Z,19.70
2018-01-17T08:38:49.542Z,24.10
2018-01-17T08:39:49.538Z,22.00
2018-01-17T08:40:49.545Z,16.30
2018-01-17T08:41:49.553Z,22.50
2018-01-17T08:42:49.552Z,27.60
2018-01-17T08:43:49.560Z,25.80
2018-01-17T08:44:49.561Z,23.50
2018-01-17T08:45:49.558Z,19.60
2018-01-17T08:47:49.568Z,23.90
2018-01-17T08:48:49.600Z,21.40
2018-01-17T08:49:49.568Z,19.60
2018-01-17T08:50:49.574Z,22.40
2018-01-17T08:51:49.577Z,20.50
2018-01-17T08:52:49.585Z,22.50
2018-01-17T08:53:49.600Z,20.70
2018-01-17T08:54:49.592Z,23.60
2018-01-17T08:55:49.589Z,19.30
2018-01-17T08:56:49.603Z,17.90
2018-01-17T08:57:49.606Z,13.50
2018-01-17T08:58:49.595Z,10.50
2018-01-17T08:59:49.610Z,13.50
2018-01-17T09:00:49.629Z,14.00
2018-01-17T09:01:49.614Z,16.30
2018-01-17T09:02:49.623Z,15.60
2018-01-17T09:03:49.629Z,14.90
2018-01-17T09:04:49.628Z,14.50
2018-01-17T09:06:49.632Z,11.40
2018-01-17T09:07:49.637Z,15.70
2018-01-17T09:08:49.634Z,11.70
2018-01-17T09:09:49.649Z,16.00
2018-01-17T09:10:49.652Z,13.80
2018-01-17T09:11:49.652Z,16.60
2018-01-17T09:12:49.675Z,12.70
2018-01-17T09:13:49.658Z,12.50
2018-01-17T09:14:49.670Z,14.10
2018-01-17T09:15:49.670Z,11.00
2018-01-17T09:16:49.671Z,17.20
2018-01-17T09:17:49.686Z,13.70
2018-01-17T09:18:49.679Z,14.00
2018-01-17T09:19:49.684Z,14.00
2018-01-17T09:20:49.689Z,14.70
2018-01-17T09:21:49.707Z,16.50
2018-01-17T09:22:49.692Z,12.50
2018-01-17T09:23:49.698Z,13.30
2018-01-17T09:24:50.491Z,11.00
2018-01-17T09:25:49.705Z,10.50
2018-01-17T09:26:49.703Z,10.20
2018-01-17T09:27:49.715Z,10.60
2018-01-17T09:28:49.715Z,10.10
2018-01-17T09:29:49.726Z,12.50
2018-01-17T09:30:49.726Z,11.50
2018-01-17T09:31:49.726Z,10.60
2018-01-17T09:32:49.727Z,15.90
2018-01-17T09:33:49.734Z,13.20
2018-01-17T09:34:49.738Z,13.00
2018-01-17T09:35:49.740Z,10.60
2018-01-17T09:36:49.757Z,10.20
2018-01-17T09:37:49.755Z,10.70
2018-01-17T09:38:49.959Z,12.10
2018-01-17T09:39:49.758Z,11.30
2018-01-17T09:40:49.781Z,11.40
2018-01-17T09:41:49.757Z,13.60
2018-01-17T09:42:49.772Z,12.80
2018-01-17T09:43:49.770Z,9.00
2018-01-17T09:44:49.780Z,13.20
2018-01-17T09:45:49.849Z,10.90
2018-01-17T09:46:49.787Z,10.20
2018-01-17T09:47:49.789Z,11.60
2018-01-17T09:48:49.795Z,9.50
2018-01-17T09:49:49.799Z,6.80
2018-01-17T09:50:49.799Z,10.60
2018-01-17T09:51:49.808Z,10.20
2018-01-17T09:52:49.949Z,6.20
2018-01-17T09:53:49.814Z,8.10
2018-01-17T09:54:49.821Z,6.60
2018-01-17T09:55:49.830Z,10.40
2018-01-17T09:56:49.827Z,11.00
2018-01-17T09:57:49.831Z,9.70
2018-01-17T09:58:49.841Z,10.40
2018-01-17T09:59:49.840Z,7.90
2018-01-17T10:00:49.844Z,10.50
2018-01-17T10:01:49.888Z,11.70
2018-01-17T10:02:49.872Z,8.90
2018-01-17T10:03:49.859Z,10.30
2018-01-17T10:04:49.858Z,12.80
2018-01-17T10:05:49.901Z,10.70
2018-01-17T10:06:49.878Z,7.90
2018-01-17T10:07:49.880Z,14.80
2018-01-17T10:08:49.883Z,9.40
2018-01-17T10:09:49.883Z,13.20
2018-01-17T10:10:49.891Z,9.90
2018-01-17T10:11:49.898Z,10.50
2018-01-17T10:12:49.904Z,12.10
2018-01-17T10:13:49.909Z,8.10
2018-01-17T10:14:49.952Z,10.30
2018-01-17T10:15:49.904Z,11.00
2018-01-17T10:16:49.925Z,10.60
2018-01-17T10:17:49.921Z,9.80
2018-01-17T10:18:49.933Z,10.80
2018-01-17T10:19:49.935Z,12.60
2018-01-17T10:20:49.940Z,8.70
2018-01-17T10:21:49.948Z,8.80
2018-01-17T10:22:49.952Z,7.90
2018-01-17T10:23:49.953Z,6.90
2018-01-17T10:24:49.967Z,9.20
2018-01-17T10:25:49.965Z,10.40
2018-01-17T10:26:50.085Z,9.90
2018-01-17T10:27:50.022Z,9.90
2018-01-17T10:28:50.019Z,10.10
2018-01-17T10:29:49.981Z,6.30
2018-01-17T10:30:49.984Z,9.30
2018-01-17T10:31:50.002Z,10.60
2018-01-17T10:32:50.011Z,4.90
2018-01-17T10:33:50.085Z,4.10
2018-01-17T10:34:50.011Z,9.70
2018-01-17T10:35:50.015Z,9.90
2018-01-17T10:36:50.021Z,9.80
2018-01-17T10:37:50.026Z,11.70
2018-01-17T10:38:50.018Z,10.10
2018-01-17T10:39:50.032Z,9.30
2018-01-17T10:40:50.040Z,8.50
2018-01-17T10:41:50.056Z,5.50
2018-01-17T10:42:50.047Z,8.00
2018-01-17T10:43:50.050Z,6.80
2018-01-17T10:44:50.058Z,10.80
2018-01-17T10:45:50.066Z,13.00
2018-01-17T10:46:50.070Z,9.00
2018-01-17T10:47:50.076Z,7.50
2018-01-17T10:48:50.088Z,8.40
2018-01-17T10:49:50.092Z,10.30
2018-01-17T10:50:50.089Z,3.70
2018-01-17T10:51:50.093Z,9.00
2018-01-17T10:52:50.112Z,7.90
2018-01-17T10:53:50.126Z,10.60
2018-01-17T10:54:50.112Z,8.20
2018-01-17T10:55:50.149Z,8.80
2018-01-17T10:56:50.268Z,6.80
2018-01-17T10:57:50.131Z,4.60
2018-01-17T10:58:50.134Z,8.80
2018-01-17T10:59:50.141Z,11.10
2018-01-17T11:00:50.145Z,10.50
2018-01-17T11:01:50.149Z,6.20
2018-01-17T11:02:50.155Z,8.10
2018-01-17T11:03:50.172Z,8.30
2018-01-17T11:04:50.179Z,9.70
2018-01-17T11:05:50.182Z,13.60
2018-01-17T11:06:50.181Z,10.30
2018-01-17T11:07:50.184Z,7.00
2018-01-17T11:08:50.189Z,8.30
2018-01-17T11:09:50.222Z,10.20
2018-01-17T11:10:50.211Z,10.10
2018-01-17T11:11:50.211Z,11.80
2018-01-17T11:12:50.221Z,6.90
2018-01-17T11:13:50.216Z,12.40
2018-01-17T11:14:50.227Z,10.90
2018-01-17T11:15:50.239Z,8.60
2018-01-17T11:16:50.239Z,9.40
2018-01-17T11:17:50.250Z,12.50
2018-01-17T11:18:50.258Z,9.20
2018-01-17T11:19:50.259Z,11.80
2018-01-17T11:20:50.262Z,9.50
2018-01-17T11:21:50.278Z,11.90
2018-01-17T11:22:50.274Z,8.20
2018-01-17T11:23:50.278Z,9.80
2018-01-17T11:24:50.294Z,10.30
2018-01-17T11:25:50.284Z,10.80
2018-01-17T11:26:50.305Z,11.70
2018-01-17T11:27:50.290Z,13.30
2018-01-17T11:28:50.301Z,7.00
2018-01-17T11:29:50.306Z,13.20
2018-01-17T11:30:50.512Z,11.40
2018-01-17T11:31:51.335Z,7.00
2018-01-17T11:32:50.748Z,9.30
2018-01-17T11:33:50.358Z,6.20
2018-01-17T11:34:50.352Z,9.00
2018-01-17T11:35:50.586Z,15.70
2018-01-17T11:36:50.347Z,11.00
2018-01-17T11:37:50.379Z,8.60
2018-01-17T11:38:50.382Z,10.10
2018-01-17T11:39:50.418Z,12.20
2018-01-17T11:40:50.389Z,16.20
2018-01-17T11:41:50.371Z,10.50
2018-01-17T11:42:50.390Z,10.70
2018-01-17T11:43:50.365Z,12.00
2018-01-17T11:44:50.377Z,12.80
2018-01-17T11:45:50.387Z,9.00
2018-01-17T11:46:50.391Z,11.50
2018-01-17T11:47:50.400Z,11.50
2018-01-17T11:48:50.400Z,12.50
2018-01-17T11:49:50.402Z,10.10
2018-01-17T11:50:50.409Z,9.90
2018-01-17T11:51:50.445Z,8.90
2018-01-17T11:52:50.417Z,10.00
2018-01-17T11:53:50.421Z,11.00
2018-01-17T11:54:50.427Z,8.70
2018-01-17T11:55:50.462Z,11.10
2018-01-17T11:56:50.434Z,10.30
2018-01-17T11:57:50.435Z,8.90
2018-01-17T11:58:50.439Z,9.50
2018-01-17T11:59:50.529Z,10.50
2018-01-17T12:00:50.480Z,8.30
2018-01-17T12:01:50.622Z,10.40
2018-01-17T12:02:50.491Z,8.40
2018-01-17T12:03:50.476Z,18.70
2018-01-17T12:04:50.635Z,13.80
2018-01-17T12:05:50.479Z,12.00
2018-01-17T12:06:50.485Z,14.10
2018-01-17T12:07:50.489Z,11.90
2018-01-17T12:08:50.496Z,9.20
2018-01-17T12:09:50.497Z,12.10
2018-01-17T12:10:50.592Z,8.80
2018-01-17T12:11:50.509Z,9.20
2018-01-17T12:12:50.513Z,9.60
2018-01-17T12:13:50.518Z,13.50
2018-01-17T12:14:50.545Z,9.80
2018-01-17T12:15:50.596Z,8.90
2018-01-17T12:16:50.531Z,7.80
2018-01-17T12:17:50.534Z,7.80
2018-01-17T12:18:50.538Z,18.70
2018-01-17T12:19:50.549Z,12.70
2018-01-17T12:20:50.550Z,7.90
2018-01-17T12:21:50.556Z,16.50
2018-01-17T12:22:50.562Z,8.50
2018-01-17T12:23:50.564Z,10.80
2018-01-17T12:24:50.564Z,11.50
2018-01-17T12:25:50.584Z,10.60
2018-01-17T12:26:50.574Z,14.10
2018-01-17T12:27:50.582Z,8.70
2018-01-17T12:28:50.596Z,10.60
2018-01-17T12:29:50.589Z,9.20
2018-01-17T12:30:50.591Z,14.20
2018-01-17T12:31:50.594Z,9.10
2018-01-17T12:32:50.603Z,10.50
2018-01-17T12:33:50.606Z,14.60
2018-01-17T12:34:50.615Z,15.60
2018-01-17T12:35:50.623Z,16.80
2018-01-17T12:36:50.622Z,7.50
2018-01-17T12:37:50.620Z,14.90
2018-01-17T12:38:50.624Z,12.50
2018-01-17T12:39:50.631Z,14.30
2018-01-17T12:40:50.631Z,12.30
2018-01-17T12:41:50.668Z,12.00
2018-01-17T12:42:50.644Z,10.20
2018-01-17T12:43:50.646Z,11.10
2018-01-17T12:44:50.652Z,8.50
2018-01-17T12:45:50.658Z,10.50
2018-01-17T12:46:50.670Z,8.50
2018-01-17T12:47:50.663Z,8.10
2018-01-17T12:48:50.674Z,8.80
2018-01-17T12:49:50.677Z,10.80
2018-01-17T12:50:50.681Z,9.60
2018-01-17T12:51:50.676Z,7.90
2018-01-17T12:52:50.687Z,11.00
2018-01-17T12:53:50.699Z,10.50
2018-01-17T12:54:50.726Z,10.60
2018-01-17T12:55:50.703Z,10.60
2018-01-17T12:56:50.726Z,6.10
2018-01-17T12:57:50.706Z,5.60
2018-01-17T12:58:50.724Z,13.40
2018-01-17T12:59:50.716Z,11.20
2018-01-17T13:00:50.724Z,10.00
2018-01-17T13:01:50.721Z,8.10
2018-01-17T13:02:50.727Z,9.80
2018-01-17T13:03:50.728Z,10.00
2018-01-17T13:04:50.737Z,7.80
2018-01-17T13:05:50.741Z,12.90
2018-01-17T13:06:50.742Z,6.10
2018-01-17T13:07:50.750Z,9.20
2018-01-17T13:08:50.745Z,10.20
2018-01-17T13:09:50.854Z,12.80
2018-01-17T13:10:50.768Z,10.30
2018-01-17T13:11:50.761Z,8.80